createdAt,value
2019-02-11T00:00:13.294Z,986.28
2019-02-11T00:01:13.290Z,986.26
2019-02-11T00:02:13.277Z,986.18
2019-02-11T00:03:13.276Z,986.18
2019-02-11T00:04:13.256Z,986.34
2019-02-11T00:05:13.246Z,986.24
2019-02-11T00:06:13.237Z,986.29
2019-02-11T00:07:13.224Z,986.43
2019-02-11T00:08:13.226Z,986.47
2019-02-11T00:09:13.201Z,986.42
2019-02-11T00:10:13.188Z,986.35
2019-02-11T00:11:13.188Z,986.33
2019-02-11T00:12:13.169Z,986.40
2019-02-11T00:13:13.178Z,986.40
2019-02-11T00:14:13.148Z,986.49
2019-02-11T00:15:13.139Z,986.40
2019-02-11T00:16:13.130Z,986.47
2019-02-11T00:17:13.121Z,986.52
2019-02-11T00:18:13.130Z,986.44
2019-02-11T00:19:13.105Z,986.46
2019-02-11T00:20:13.087Z,986.49
2019-02-11T00:21:13.077Z,986.58
2019-02-11T00:22:13.076Z,986.55
2019-02-11T00:23:13.056Z,986.55
2019-02-11T00:24:13.924Z,986.62
2019-02-11T00:25:13.036Z,986.67
2019-02-11T00:26:13.032Z,986.68
2019-02-11T00:27:13.016Z,986.77
2019-02-11T00:28:13.003Z,986.74
2019-02-11T00:29:13.024Z,986.65
2019-02-11T00:30:12.983Z,986.78
2019-02-11T00:31:12.981Z,986.84
2019-02-11T00:32:12.963Z,986.85
2019-02-11T00:33:12.948Z,986.86
2019-02-11T00:34:12.944Z,986.91
2019-02-11T00:35:12.948Z,986.92
2019-02-11T00:36:12.928Z,986.96
2019-02-11T00:37:12.909Z,987.01
2019-02-11T00:38:12.896Z,987.02
2019-02-11T00:39:12.886Z,986.97
2019-02-11T00:40:12.923Z,986.97
2019-02-11T00:41:15.381Z,986.97
2019-02-11T00:42:12.856Z,987.00
2019-02-11T00:43:18.974Z,986.98
2019-02-11T00:44:13.832Z,987.06
2019-02-11T00:45:12.823Z,987.13
2019-02-11T00:46:12.826Z,987.12
2019-02-11T00:47:12.797Z,987.10
2019-02-11T00:48:12.788Z,987.17
2019-02-11T00:49:12.782Z,987.17
2019-02-11T00:50:12.776Z,987.12
2019-02-11T00:51:12.786Z,987.13
2019-02-11T00:52:12.757Z,987.21
2019-02-11T00:53:12.741Z,987.17
2019-02-11T00:54:12.729Z,987.25
2019-02-11T00:55:12.715Z,987.24
2019-02-11T00:56:12.703Z,987.26
2019-02-11T00:57:12.711Z,987.26
2019-02-11T00:58:12.684Z,987.39
2019-02-11T00:59:12.673Z,987.37
2019-02-11T01:00:12.661Z,987.47
2019-02-11T01:01:12.665Z,987.43
2019-02-11T01:02:12.668Z,987.47
2019-02-11T01:03:12.632Z,987.53
2019-02-11T01:04:12.626Z,987.62
2019-02-11T01:05:12.609Z,987.57
2019-02-11T01:06:12.602Z,987.62
2019-02-11T01:07:12.590Z,987.66
2019-02-11T01:08:12.592Z,987.66
2019-02-11T01:09:12.566Z,987.60
2019-02-11T01:10:12.557Z,987.73
2019-02-11T01:11:12.545Z,987.72
2019-02-11T01:12:12.545Z,987.80
2019-02-11T01:13:12.536Z,987.85
2019-02-11T01:14:12.524Z,987.88
2019-02-11T01:15:12.506Z,987.89
2019-02-11T01:16:12.493Z,987.94
2019-02-11T01:17:12.546Z,987.86
2019-02-11T01:18:12.480Z,987.99
2019-02-11T01:19:12.457Z,988.03
2019-02-11T01:20:12.453Z,988.00
2019-02-11T01:21:12.438Z,988.03
2019-02-11T01:22:12.428Z,988.10
2019-02-11T01:23:12.426Z,988.06
2019-02-11T01:24:12.408Z,988.08
2019-02-11T01:25:12.397Z,988.16
2019-02-11T01:26:12.390Z,988.14
2019-02-11T01:27:12.378Z,988.10
2019-02-11T01:28:12.384Z,988.16
2019-02-11T01:29:12.355Z,988.19
2019-02-11T01:30:12.353Z,988.22
2019-02-11T01:31:12.330Z,988.26
2019-02-11T01:32:12.324Z,988.22
2019-02-11T01:33:12.334Z,988.21
2019-02-11T01:34:12.310Z,988.22
2019-02-11T01:35:12.290Z,988.28
2019-02-11T01:36:12.285Z,988.35
2019-02-11T01:37:12.276Z,988.33
2019-02-11T01:38:12.278Z,988.29
2019-02-11T01:39:12.259Z,988.42
2019-02-11T01:40:12.241Z,988.40
2019-02-11T01:41:12.235Z,988.35
2019-02-11T01:42:12.218Z,988.44
2019-02-11T01:43:12.229Z,988.45
2019-02-11T01:44:12.200Z,988.43
2019-02-11T01:45:12.189Z,988.46
2019-02-11T01:46:12.180Z,988.50
2019-02-11T01:47:12.170Z,988.48
2019-02-11T01:48:12.185Z,988.48
2019-02-11T01:49:12.149Z,988.48
2019-02-11T01:50:12.137Z,988.55
2019-02-11T01:51:12.124Z,988.53
2019-02-11T01:52:12.117Z,988.53
2019-02-11T01:53:12.104Z,988.54
2019-02-11T01:54:12.107Z,988.57
2019-02-11T01:55:12.084Z,988.64
2019-02-11T01:56:12.074Z,988.63
2019-02-11T01:57:12.066Z,988.70
2019-02-11T01:58:12.056Z,988.68
2019-02-11T01:59:12.060Z,988.73
2019-02-11T02:00:12.030Z,988.77
2019-02-11T02:01:12.017Z,988.78
2019-02-11T02:02:12.012Z,988.88
2019-02-11T02:03:12.001Z,988.89
2019-02-11T02:04:12.003Z,988.91
2019-02-11T02:05:11.981Z,988.92
2019-02-11T02:06:11.971Z,989.03
2019-02-11T02:07:11.954Z,988.91
2019-02-11T02:08:11.949Z,989.02
2019-02-11T02:09:11.951Z,989.03
2019-02-11T02:10:11.923Z,989.09
2019-02-11T02:11:11.913Z,989.08
2019-02-11T02:12:11.907Z,989.05
2019-02-11T02:13:11.899Z,989.16
2019-02-11T02:14:11.897Z,989.18
2019-02-11T02:15:11.873Z,989.17
2019-02-11T02:16:11.862Z,989.25
2019-02-11T02:17:11.855Z,989.17
2019-02-11T02:18:11.841Z,989.26
2019-02-11T02:19:11.843Z,989.21
2019-02-11T02:20:11.822Z,989.29
2019-02-11T02:21:11.809Z,989.31
2019-02-11T02:22:11.799Z,989.35
2019-02-11T02:23:11.793Z,989.36
2019-02-11T02:24:11.786Z,989.38
2019-02-11T02:25:11.767Z,989.44
2019-02-11T02:26:11.760Z,989.41
2019-02-11T02:27:11.749Z,989.53
2019-02-11T02:28:11.741Z,989.46
2019-02-11T02:29:11.746Z,989.55
2019-02-11T02:30:11.723Z,989.58
2019-02-11T02:31:11.712Z,989.56
2019-02-11T02:32:11.695Z,989.68
2019-02-11T02:33:11.688Z,989.62
2019-02-11T02:34:11.701Z,989.65
2019-02-11T02:35:11.665Z,989.68
2019-02-11T02:36:11.663Z,989.68
2019-02-11T02:37:11.647Z,989.75
2019-02-11T02:38:11.630Z,989.85
2019-02-11T02:39:11.623Z,989.82
2019-02-11T02:40:11.625Z,989.87
2019-02-11T02:41:11.606Z,989.87
2019-02-11T02:42:11.592Z,989.87
2019-02-11T02:43:11.583Z,989.91
2019-02-11T02:44:11.568Z,989.95
2019-02-11T02:45:11.583Z,989.99
2019-02-11T02:46:11.547Z,990.00
2019-02-11T02:47:11.536Z,990.06
2019-02-11T02:48:11.540Z,990.02
2019-02-11T02:49:11.524Z,990.11
2019-02-11T02:50:11.539Z,990.10
2019-02-11T02:51:11.505Z,990.15
2019-02-11T02:52:11.485Z,990.14
2019-02-11T02:53:11.475Z,990.23
2019-02-11T02:54:11.468Z,990.24
2019-02-11T02:55:11.469Z,990.31
2019-02-11T02:56:11.442Z,990.29
2019-02-11T02:57:11.434Z,990.25
2019-02-11T02:58:11.422Z,990.27
2019-02-11T02:59:11.412Z,990.26
2019-02-11T03:00:11.418Z,990.36
2019-02-11T03:01:11.393Z,990.46
2019-02-11T03:02:11.382Z,990.43
2019-02-11T03:03:11.385Z,990.43
2019-02-11T03:04:11.365Z,990.48
2019-02-11T03:05:11.372Z,990.49
2019-02-11T03:06:11.341Z,990.50
2019-02-11T03:07:11.329Z,990.55
2019-02-11T03:08:11.317Z,990.57
2019-02-11T03:09:11.308Z,990.59
2019-02-11T03:10:11.313Z,990.64
2019-02-11T03:11:11.287Z,990.66
2019-02-11T03:12:11.276Z,990.68
2019-02-11T03:13:11.298Z,990.77
2019-02-11T03:14:11.266Z,990.81
2019-02-11T03:15:11.266Z,990.76
2019-02-11T03:16:11.234Z,990.84
2019-02-11T03:17:11.226Z,990.95
2019-02-11T03:18:11.215Z,990.93
2019-02-11T03:19:11.201Z,990.90
2019-02-11T03:20:11.217Z,990.99
2019-02-11T03:21:11.181Z,991.00
2019-02-11T03:22:11.173Z,991.05
2019-02-11T03:23:11.161Z,991.03
2019-02-11T03:24:11.152Z,991.11
2019-02-11T03:25:11.138Z,991.20
2019-02-11T03:26:11.153Z,991.16
2019-02-11T03:27:11.134Z,991.17
2019-02-11T03:28:11.105Z,991.23
2019-02-11T03:29:11.104Z,991.25
2019-02-11T03:30:11.093Z,991.27
2019-02-11T03:31:11.087Z,991.25
2019-02-11T03:32:11.068Z,991.33
2019-02-11T03:33:11.069Z,991.39
2019-02-11T03:34:11.042Z,991.42
2019-02-11T03:35:11.033Z,991.43
2019-02-11T03:36:11.051Z,991.51
2019-02-11T03:37:11.011Z,991.54
2019-02-11T03:38:11.003Z,991.55
2019-02-11T03:39:10.995Z,991.51
2019-02-11T03:40:10.981Z,991.58
2019-02-11T03:41:10.987Z,991.57
2019-02-11T03:42:10.962Z,991.62
2019-02-11T03:43:10.954Z,991.65
2019-02-11T03:44:15.096Z,991.63
2019-02-11T03:45:10.933Z,991.67
2019-02-11T03:46:10.933Z,991.73
2019-02-11T03:47:10.912Z,991.77
2019-02-11T03:48:10.901Z,991.72
2019-02-11T03:49:10.890Z,991.85
2019-02-11T03:50:10.877Z,991.95
2019-02-11T03:51:10.885Z,991.84
2019-02-11T03:52:10.857Z,991.89
2019-02-11T03:53:10.849Z,991.96
2019-02-11T03:54:10.841Z,991.99
2019-02-11T03:55:10.833Z,992.14
2019-02-11T03:56:10.845Z,992.15
2019-02-11T03:57:10.810Z,992.11
2019-02-11T03:58:10.797Z,992.08
2019-02-11T03:59:10.784Z,992.19
2019-02-11T04:00:10.775Z,992.21
2019-02-11T04:01:10.770Z,992.28
2019-02-11T04:02:10.772Z,992.32
2019-02-11T04:03:10.742Z,992.32
2019-02-11T04:04:10.745Z,992.35
2019-02-11T04:05:10.727Z,992.41
2019-02-11T04:06:10.712Z,992.51
2019-02-11T04:07:10.712Z,992.40
2019-02-11T04:08:10.702Z,992.52
2019-02-11T04:09:10.691Z,992.55
2019-02-11T04:10:10.676Z,992.53
2019-02-11T04:11:10.663Z,992.57
2019-02-11T04:12:10.661Z,992.56
2019-02-11T04:13:10.642Z,992.62
2019-02-11T04:14:10.635Z,992.71
2019-02-11T04:15:10.616Z,992.68
2019-02-11T04:16:10.611Z,992.74
2019-02-11T04:17:10.611Z,992.69
2019-02-11T04:18:10.585Z,992.78
2019-02-11T04:19:10.571Z,992.78
2019-02-11T04:20:10.585Z,992.91
2019-02-11T04:21:10.553Z,992.81
2019-02-11T04:22:10.563Z,992.90
2019-02-11T04:23:10.528Z,992.87
2019-02-11T04:24:10.526Z,992.98
2019-02-11T04:25:10.519Z,992.98
2019-02-11T04:26:10.502Z,993.02
2019-02-11T04:27:10.499Z,993.06
2019-02-11T04:28:10.485Z,992.99
2019-02-11T04:29:10.469Z,993.07
2019-02-11T04:30:10.460Z,993.03
2019-02-11T04:31:10.448Z,993.11
2019-02-11T04:32:10.453Z,993.13
2019-02-11T04:33:10.425Z,993.13
2019-02-11T04:34:10.418Z,993.17
2019-02-11T04:35:10.406Z,993.27
2019-02-11T04:36:10.396Z,993.22
2019-02-11T04:37:10.419Z,993.27
2019-02-11T04:38:10.384Z,993.30
2019-02-11T04:39:10.367Z,993.33
2019-02-11T04:40:10.357Z,993.30
2019-02-11T04:41:10.346Z,993.37
2019-02-11T04:42:10.339Z,993.38
2019-02-11T04:43:10.341Z,993.36
2019-02-11T04:44:10.320Z,993.40
2019-02-11T04:45:10.304Z,993.46
2019-02-11T04:46:10.302Z,993.50
2019-02-11T04:47:10.283Z,993.56
2019-02-11T04:48:10.289Z,993.59
2019-02-11T04:49:10.262Z,993.69
2019-02-11T04:50:10.264Z,993.57
2019-02-11T04:51:10.243Z,993.73
2019-02-11T04:52:10.228Z,993.70
2019-02-11T04:53:10.237Z,993.84
2019-02-11T04:54:10.214Z,993.74
2019-02-11T04:55:10.199Z,993.80
2019-02-11T04:56:10.192Z,993.86
2019-02-11T04:57:10.185Z,993.96
2019-02-11T04:58:10.180Z,993.93
2019-02-11T04:59:10.154Z,993.97
2019-02-11T05:00:10.158Z,994.00
2019-02-11T05:01:10.139Z,994.04
2019-02-11T05:02:10.128Z,994.10
2019-02-11T05:03:10.145Z,993.99
2019-02-11T05:04:10.105Z,994.02
2019-02-11T05:05:10.099Z,994.14
2019-02-11T05:06:10.089Z,994.12
2019-02-11T05:07:10.078Z,994.18
2019-02-11T05:08:10.089Z,994.22
2019-02-11T05:09:10.054Z,994.07
2019-02-11T05:10:10.047Z,994.19
2019-02-11T05:11:10.039Z,994.21
2019-02-11T05:12:10.025Z,994.14
2019-02-11T05:13:10.028Z,994.17
2019-02-11T05:14:10.006Z,994.29
2019-02-11T05:15:09.986Z,994.24
2019-02-11T05:16:09.978Z,994.33
2019-02-11T05:17:09.968Z,994.25
2019-02-11T05:18:09.988Z,994.27
2019-02-11T05:19:09.956Z,994.21
2019-02-11T05:20:09.946Z,994.29
2019-02-11T05:21:09.928Z,994.38
2019-02-11T05:22:09.921Z,994.38
2019-02-11T05:23:09.914Z,994.35
2019-02-11T05:24:09.921Z,994.43
2019-02-11T05:25:09.896Z,994.41
2019-02-11T05:26:09.877Z,994.43
2019-02-11T05:27:09.871Z,994.51
2019-02-11T05:28:09.857Z,994.53
2019-02-11T05:29:09.864Z,994.53
2019-02-11T05:30:09.840Z,994.54
2019-02-11T05:31:09.826Z,994.60
2019-02-11T05:32:09.817Z,994.55
2019-02-11T05:33:09.834Z,994.57
2019-02-11T05:34:09.803Z,994.61
2019-02-11T05:35:09.790Z,994.65
2019-02-11T05:36:09.774Z,994.69
2019-02-11T05:37:09.760Z,994.71
2019-02-11T05:38:09.751Z,994.73
2019-02-11T05:39:09.755Z,994.75
2019-02-11T05:40:09.732Z,994.78
2019-02-11T05:41:09.720Z,994.85
2019-02-11T05:42:09.711Z,994.79
2019-02-11T05:43:09.696Z,994.82
2019-02-11T05:44:09.703Z,994.84
2019-02-11T05:45:09.679Z,994.88
2019-02-11T05:46:09.669Z,994.92
2019-02-11T05:47:09.656Z,994.94
2019-02-11T05:48:09.653Z,995.04
2019-02-11T05:49:09.650Z,994.98
2019-02-11T05:50:09.630Z,995.07
2019-02-11T05:51:09.613Z,995.08
2019-02-11T05:52:09.639Z,995.01
2019-02-11T05:53:09.596Z,995.04
2019-02-11T05:54:09.603Z,995.09
2019-02-11T05:55:09.570Z,995.19
2019-02-11T05:56:09.559Z,995.16
2019-02-11T05:57:09.551Z,995.22
2019-02-11T05:58:09.538Z,995.24
2019-02-11T05:59:09.550Z,995.30
2019-02-11T06:00:09.517Z,995.23
2019-02-11T06:01:09.507Z,995.32
2019-02-11T06:02:09.499Z,995.30
2019-02-11T06:03:09.729Z,995.36
2019-02-11T06:04:09.492Z,995.35
2019-02-11T06:05:09.468Z,995.42
2019-02-11T06:06:09.461Z,995.39
2019-02-11T06:07:09.455Z,995.48
2019-02-11T06:08:09.437Z,995.44
2019-02-11T06:09:09.460Z,995.48
2019-02-11T06:10:09.411Z,995.51
2019-02-11T06:11:09.482Z,995.54
2019-02-11T06:12:09.491Z,995.56
2019-02-11T06:13:09.385Z,995.59
2019-02-11T06:14:09.374Z,995.64
2019-02-11T06:15:09.373Z,995.70
2019-02-11T06:16:09.364Z,995.68
2019-02-11T06:17:09.341Z,995.74
2019-02-11T06:18:09.337Z,995.74
2019-02-11T06:19:09.322Z,995.80
2019-02-11T06:20:09.326Z,995.80
2019-02-11T06:21:09.300Z,995.84
2019-02-11T06:22:09.287Z,995.87
2019-02-11T06:23:09.277Z,995.87
2019-02-11T06:24:09.273Z,995.88
2019-02-11T06:25:09.273Z,995.92
2019-02-11T06:26:09.249Z,995.99
2019-02-11T06:27:09.240Z,995.96
2019-02-11T06:28:09.228Z,995.94
2019-02-11T06:29:09.220Z,996.02
2019-02-11T06:30:09.222Z,996.02
2019-02-11T06:31:09.198Z,996.09
2019-02-11T06:32:09.186Z,996.03
2019-02-11T06:33:09.173Z,996.11
2019-02-11T06:34:09.168Z,996.18
2019-02-11T06:35:09.166Z,996.15
2019-02-11T06:36:12.220Z,996.18
2019-02-11T06:37:09.138Z,996.10
2019-02-11T06:38:09.123Z,996.08
2019-02-11T06:39:09.128Z,996.13
2019-02-11T06:40:09.122Z,996.16
2019-02-11T06:41:09.352Z,996.23
2019-02-11T06:42:09.083Z,996.14
2019-02-11T06:43:09.074Z,996.22
2019-02-11T06:44:09.059Z,996.14
2019-02-11T06:45:13.098Z,996.32
2019-02-11T06:46:09.039Z,996.20
2019-02-11T06:47:09.042Z,996.32
2019-02-11T06:48:09.019Z,996.31
2019-02-11T06:49:09.006Z,996.41
2019-02-11T06:50:09.029Z,996.39
2019-02-11T06:51:08.986Z,996.52
2019-02-11T06:52:08.976Z,996.66
2019-02-11T06:53:08.961Z,996.54
2019-02-11T06:54:09.475Z,996.53
2019-02-11T06:55:08.962Z,996.59
2019-02-11T06:56:08.990Z,996.55
2019-02-11T06:57:09.475Z,996.63
2019-02-11T06:58:09.474Z,996.64
2019-02-11T06:59:08.901Z,996.69
2019-02-11T07:00:08.897Z,996.60
2019-02-11T07:01:08.899Z,996.69
2019-02-11T07:02:08.870Z,996.69
2019-02-11T07:03:08.860Z,996.71
2019-02-11T07:04:08.854Z,996.68
2019-02-11T07:05:08.837Z,996.76
2019-02-11T07:06:08.848Z,996.78
2019-02-11T07:07:08.828Z,996.78
2019-02-11T07:08:08.811Z,996.87
2019-02-11T07:09:08.795Z,996.91
2019-02-11T07:10:08.787Z,996.90
2019-02-11T07:11:08.794Z,996.94
2019-02-11T07:12:08.767Z,996.95
2019-02-11T07:13:08.758Z,997.03
2019-02-11T07:14:08.743Z,997.03
2019-02-11T07:15:08.736Z,997.10
2019-02-11T07:16:08.735Z,997.12
2019-02-11T07:17:08.711Z,997.13
2019-02-11T07:18:08.701Z,997.09
2019-02-11T07:19:08.689Z,997.16
2019-02-11T07:20:08.684Z,997.15
2019-02-11T07:21:08.688Z,997.20
2019-02-11T07:22:08.657Z,997.22
2019-02-11T07:23:08.652Z,997.29
2019-02-11T07:24:08.647Z,997.26
2019-02-11T07:25:08.627Z,997.28
2019-02-11T07:26:08.642Z,997.35
2019-02-11T07:27:08.612Z,997.33
2019-02-11T07:28:08.598Z,997.42
2019-02-11T07:29:08.588Z,997.40
2019-02-11T07:30:08.581Z,997.41
2019-02-11T07:31:08.587Z,997.43
2019-02-11T07:32:08.557Z,997.51
2019-02-11T07:33:08.553Z,997.52
2019-02-11T07:34:08.536Z,997.45
2019-02-11T07:35:08.528Z,997.57
2019-02-11T07:36:08.540Z,997.58
2019-02-11T07:37:08.505Z,997.57
2019-02-11T07:38:08.493Z,997.64
2019-02-11T07:39:08.485Z,997.62
2019-02-11T07:40:08.473Z,997.63
2019-02-11T07:41:08.461Z,997.64
2019-02-11T07:42:08.474Z,997.70
2019-02-11T07:43:08.446Z,997.73
2019-02-11T07:44:08.431Z,997.74
2019-02-11T07:45:08.420Z,997.73
2019-02-11T07:46:08.409Z,997.76
2019-02-11T07:47:08.421Z,997.78
2019-02-11T07:48:08.389Z,997.75
2019-02-11T07:49:08.377Z,997.87
2019-02-11T07:50:08.382Z,997.81
2019-02-11T07:51:08.361Z,997.86
2019-02-11T07:52:08.365Z,997.99
2019-02-11T07:53:08.433Z,997.87
2019-02-11T07:54:08.331Z,997.96
2019-02-11T07:55:08.319Z,997.97
2019-02-11T07:56:08.305Z,998.05
2019-02-11T07:57:08.321Z,997.92
2019-02-11T07:58:08.286Z,998.02
2019-02-11T07:59:08.280Z,997.92
2019-02-11T08:00:08.267Z,997.99
2019-02-11T08:01:08.254Z,998.00
2019-02-11T08:02:08.264Z,998.03
2019-02-11T08:03:08.243Z,997.98
2019-02-11T08:04:08.224Z,997.99
2019-02-11T08:05:08.211Z,998.01
2019-02-11T08:06:09.112Z,998.03
2019-02-11T08:07:08.213Z,998.09
2019-02-11T08:08:08.184Z,998.08
2019-02-11T08:09:08.180Z,998.13
2019-02-11T08:10:08.161Z,998.11
2019-02-11T08:11:08.155Z,998.12
2019-02-11T08:12:08.157Z,998.13
2019-02-11T08:13:08.136Z,998.25
2019-02-11T08:14:08.121Z,998.14
2019-02-11T08:15:08.116Z,998.16
2019-02-11T08:16:08.103Z,998.24
2019-02-11T08:17:08.120Z,998.23
2019-02-11T08:18:08.078Z,998.33
2019-02-11T08:19:08.080Z,998.25
2019-02-11T08:20:08.060Z,998.26
2019-02-11T08:21:08.046Z,998.24
2019-02-11T08:22:08.033Z,998.31
2019-02-11T08:23:13.047Z,998.32
2019-02-11T08:24:09.015Z,998.37
2019-02-11T08:25:08.008Z,998.36
2019-02-11T08:26:07.995Z,998.39
2019-02-11T08:27:07.988Z,998.41
2019-02-11T08:28:07.993Z,998.39
2019-02-11T08:29:07.974Z,998.42
2019-02-11T08:30:07.958Z,998.44
2019-02-11T08:31:07.945Z,998.41
2019-02-11T08:32:07.938Z,998.45
2019-02-11T08:33:07.940Z,998.46
2019-02-11T08:34:07.920Z,998.48
2019-02-11T08:35:07.899Z,998.50
2019-02-11T08:36:07.888Z,998.59
2019-02-11T08:37:07.883Z,998.57
2019-02-11T08:38:07.896Z,998.61
2019-02-11T08:39:07.876Z,998.64
2019-02-11T08:40:07.854Z,998.74
2019-02-11T08:41:07.846Z,998.71
2019-02-11T08:42:07.831Z,998.78
2019-02-11T08:43:07.834Z,998.81
2019-02-11T08:44:07.811Z,998.82
2019-02-11T08:45:07.803Z,998.79
2019-02-11T08:46:07.790Z,998.76
2019-02-11T08:47:07.780Z,998.82
2019-02-11T08:48:07.779Z,998.78
2019-02-11T08:49:07.757Z,998.94
2019-02-11T08:50:15.537Z,998.98
2019-02-11T08:51:07.735Z,998.97
2019-02-11T08:52:07.726Z,998.91
2019-02-11T08:53:07.735Z,998.94
2019-02-11T08:54:07.708Z,999.05
2019-02-11T08:55:07.721Z,999.01
2019-02-11T08:56:07.686Z,999.08
2019-02-11T08:57:07.701Z,999.10
2019-02-11T08:58:07.680Z,999.12
2019-02-11T08:59:07.653Z,999.22
2019-02-11T09:00:07.646Z,999.16
2019-02-11T09:01:07.631Z,999.29
2019-02-11T09:02:07.622Z,999.30
2019-02-11T09:03:07.624Z,999.23
2019-02-11T09:04:07.603Z,999.31
2019-02-11T09:05:07.590Z,999.35
2019-02-11T09:06:07.577Z,999.33
2019-02-11T09:07:07.568Z,999.35
2019-02-11T09:08:07.574Z,999.36
2019-02-11T09:09:07.553Z,999.43
2019-02-11T09:10:07.546Z,999.53
2019-02-11T09:11:07.537Z,999.44
2019-02-11T09:12:07.515Z,999.52
2019-02-11T09:13:07.530Z,999.55
2019-02-11T09:14:07.495Z,999.55
2019-02-11T09:15:07.497Z,999.63
2019-02-11T09:16:07.478Z,999.60
2019-02-11T09:17:10.406Z,999.69
2019-02-11T09:18:07.457Z,999.74
2019-02-11T09:19:07.456Z,999.84
2019-02-11T09:20:07.435Z,999.74
2019-02-11T09:21:07.425Z,999.96
2019-02-11T09:22:07.903Z,999.91
2019-02-11T09:23:07.402Z,999.93
2019-02-11T09:24:07.412Z,999.92
2019-02-11T09:25:07.388Z,999.97
2019-02-11T09:26:07.371Z,999.96
2019-02-11T09:27:07.358Z,999.99
2019-02-11T09:28:07.346Z,1000.05
2019-02-11T09:29:07.355Z,1000.05
2019-02-11T09:30:07.330Z,1000.07
2019-02-11T09:31:07.321Z,999.99
2019-02-11T09:32:07.312Z,1000.04
2019-02-11T09:33:07.306Z,1000.06
2019-02-11T09:34:07.310Z,1000.18
2019-02-11T09:35:07.319Z,1000.17
2019-02-11T09:36:07.265Z,1000.11
2019-02-11T09:37:07.258Z,1000.16
2019-02-11T09:38:07.248Z,1000.21
2019-02-11T09:39:07.251Z,1000.27
2019-02-11T09:40:07.228Z,1000.23
2019-02-11T09:41:07.219Z,1000.28
2019-02-11T09:42:07.209Z,1000.26
2019-02-11T09:43:07.219Z,1000.28
2019-02-11T09:44:07.190Z,1000.35
2019-02-11T09:45:07.173Z,1000.52
2019-02-11T09:46:07.160Z,1000.48
2019-02-11T09:47:07.157Z,1000.50
2019-02-11T09:48:07.141Z,1000.51
2019-02-11T09:49:07.148Z,1000.56
2019-02-11T09:50:07.121Z,1000.58
2019-02-11T09:51:07.111Z,1000.48
2019-02-11T09:52:07.099Z,1000.50
2019-02-11T09:53:07.090Z,1000.51
2019-02-11T09:54:07.094Z,1000.51
2019-02-11T09:55:07.073Z,1000.50
2019-02-11T09:56:07.069Z,1000.52
2019-02-11T09:57:07.052Z,1000.55
2019-02-11T09:58:07.041Z,1000.59
2019-02-11T09:59:07.046Z,1000.55
2019-02-11T10:00:07.041Z,1000.53
2019-02-11T10:01:07.009Z,1000.66
2019-02-11T10:02:06.999Z,1000.60
2019-02-11T10:03:06.987Z,1000.55
2019-02-11T10:04:06.998Z,1000.63
2019-02-11T10:05:06.965Z,1000.64
2019-02-11T10:06:06.952Z,1000.72
2019-02-11T10:07:06.942Z,1000.74
2019-02-11T10:08:06.933Z,1000.71
2019-02-11T10:09:06.929Z,1000.75
2019-02-11T10:10:06.929Z,1000.77
2019-02-11T10:11:06.902Z,1000.80
2019-02-11T10:12:06.888Z,1000.78
2019-02-11T10:13:06.880Z,1000.78
2019-02-11T10:14:06.871Z,1000.81
2019-02-11T10:15:06.876Z,1000.90
2019-02-11T10:16:12.258Z,1000.89
2019-02-11T10:17:07.837Z,1000.85
2019-02-11T10:18:06.842Z,1000.93
2019-02-11T10:19:06.819Z,1000.92
2019-02-11T10:20:06.823Z,1000.89
2019-02-11T10:21:06.797Z,1000.98
2019-02-11T10:22:06.786Z,1000.97
2019-02-11T10:23:06.775Z,1001.03
2019-02-11T10:24:06.764Z,1001.10
2019-02-11T10:25:06.778Z,1000.98
2019-02-11T10:26:06.744Z,1001.04
2019-02-11T10:27:06.732Z,1001.01
2019-02-11T10:28:06.723Z,1001.12
2019-02-11T10:29:06.715Z,1001.03
2019-02-11T10:30:06.729Z,1001.08
2019-02-11T10:31:06.696Z,1001.10
2019-02-11T10:32:06.683Z,1001.17
2019-02-11T10:33:06.676Z,1001.17
2019-02-11T10:34:06.665Z,1001.20
2019-02-11T10:35:06.676Z,1001.20
2019-02-11T10:36:06.640Z,1001.19
2019-02-11T10:37:06.647Z,1001.29
2019-02-11T10:38:06.619Z,1001.28
2019-02-11T10:39:06.613Z,1001.26
2019-02-11T10:40:06.607Z,1001.21
2019-02-11T10:41:06.603Z,1001.20
2019-02-11T10:42:06.579Z,1001.31
2019-02-11T10:43:06.572Z,1001.24
2019-02-11T10:44:06.558Z,1001.31
2019-02-11T10:45:06.564Z,1001.32
2019-02-11T10:46:06.556Z,1001.27
2019-02-11T10:47:06.531Z,1001.34
2019-02-11T10:48:06.518Z,1001.41
2019-02-11T10:49:06.520Z,1001.45
2019-02-11T10:50:06.509Z,1001.39
2019-02-11T10:51:06.507Z,1001.46
2019-02-11T10:52:06.504Z,1001.43
2019-02-11T10:53:06.465Z,1001.49
2019-02-11T10:54:06.458Z,1001.42
2019-02-11T10:55:06.460Z,1001.41
2019-02-11T10:56:06.450Z,1001.43
2019-02-11T10:57:06.426Z,1001.38
2019-02-11T10:58:06.468Z,1001.43
2019-02-11T10:59:06.409Z,1001.45
2019-02-11T11:00:06.395Z,1001.46
2019-02-11T11:01:06.415Z,1001.49
2019-02-11T11:02:06.383Z,1001.54
2019-02-11T11:03:06.364Z,1001.48
2019-02-11T11:04:06.356Z,1001.52
2019-02-11T11:05:06.352Z,1001.56
2019-02-11T11:06:06.348Z,1001.62
2019-02-11T11:07:06.330Z,1001.53
2019-02-11T11:08:06.316Z,1001.59
2019-02-11T11:09:06.309Z,1001.58
2019-02-11T11:10:06.290Z,1001.67
2019-02-11T11:11:06.304Z,1001.76
2019-02-11T11:12:06.273Z,1001.80
2019-02-11T11:13:06.292Z,1001.69
2019-02-11T11:14:06.252Z,1001.74
2019-02-11T11:15:06.236Z,1001.79
2019-02-11T11:16:06.246Z,1001.77
2019-02-11T11:17:06.218Z,1001.81
2019-02-11T11:18:06.268Z,1001.85
2019-02-11T11:19:06.193Z,1001.80
2019-02-11T11:20:06.183Z,1001.78
2019-02-11T11:21:06.204Z,1001.97
2019-02-11T11:22:06.163Z,1002.04
2019-02-11T11:23:06.180Z,1002.01
2019-02-11T11:24:06.142Z,1002.01
2019-02-11T11:25:06.136Z,1002.13
2019-02-11T11:26:06.153Z,1002.07
2019-02-11T11:27:06.114Z,1002.01
2019-02-11T11:28:06.108Z,1001.99
2019-02-11T11:29:06.191Z,1002.09
2019-02-11T11:30:06.075Z,1002.07
2019-02-11T11:31:06.071Z,1002.10
2019-02-11T11:32:06.075Z,1002.05
2019-02-11T11:33:06.048Z,1002.10
2019-02-11T11:34:06.036Z,1002.07
2019-02-11T11:35:06.023Z,1002.07
2019-02-11T11:36:06.017Z,1002.14
2019-02-11T11:37:06.024Z,1002.11
2019-02-11T11:38:05.998Z,1002.07
2019-02-11T11:39:05.985Z,1002.18
2019-02-11T11:40:05.971Z,1002.10
2019-02-11T11:41:05.969Z,1002.08
2019-02-11T11:42:05.965Z,1002.18
2019-02-11T11:43:05.944Z,1002.16
2019-02-11T11:44:05.932Z,1002.21
2019-02-11T11:45:05.932Z,1002.12
2019-02-11T11:46:05.919Z,1002.17
2019-02-11T11:47:05.920Z,1002.15
2019-02-11T11:48:05.901Z,1002.25
2019-02-11T11:49:05.886Z,1002.33
2019-02-11T11:50:05.868Z,1002.40
2019-02-11T11:51:05.861Z,1002.33
2019-02-11T11:52:05.861Z,1002.32
2019-02-11T11:53:05.839Z,1002.41
2019-02-11T11:54:05.827Z,1002.32
2019-02-11T11:55:05.818Z,1002.40
2019-02-11T11:56:05.813Z,1002.37
2019-02-11T11:57:05.823Z,1002.47
2019-02-11T11:58:05.870Z,1002.49
2019-02-11T11:59:05.820Z,1002.63
2019-02-11T12:00:05.778Z,1002.57
2019-02-11T12:01:05.753Z,1002.62
2019-02-11T12:02:05.781Z,1002.58
2019-02-11T12:03:06.147Z,1002.60
2019-02-11T12:04:06.784Z,1002.60
2019-02-11T12:05:05.723Z,1002.62
2019-02-11T12:06:05.704Z,1002.63
2019-02-11T12:07:05.721Z,1002.61
2019-02-11T12:08:05.686Z,1002.58
2019-02-11T12:09:05.680Z,1002.66
2019-02-11T12:10:05.658Z,1002.64
2019-02-11T12:11:05.659Z,1002.61
2019-02-11T12:12:05.657Z,1002.68
2019-02-11T12:13:21.829Z,1002.80
2019-02-11T12:14:06.627Z,1002.66
2019-02-11T12:15:05.646Z,1002.83
2019-02-11T12:16:05.593Z,1002.86
2019-02-11T12:17:05.594Z,1002.79
2019-02-11T12:18:05.614Z,1002.80
2019-02-11T12:19:05.571Z,1002.77
2019-02-11T12:20:05.565Z,1002.83
2019-02-11T12:21:05.554Z,1002.84
2019-02-11T12:22:05.543Z,1002.91
2019-02-11T12:23:05.602Z,1002.89